sensor_id;sensor_type;location;lat;lon;timestamp;pressure;altitude;pressure_sealevel;temperature;humidity
75359;BME280;64046;51.978;5.934;2023-04-15T00:01:11;100766.34;;;14.64;44.82
75359;BME280;64046;51.978;5.934;2023-04-15T00:03:44;100762.19;;;14.45;44.92
75359;BME280;64046;51.978;5.934;2023-04-15T00:06:13;100763.97;;;14.45;44.97
75359;BME280;64046;51.978;5.934;2023-04-15T00:08:42;100766.63;;;14.45;45.09
75359;BME280;64046;51.978;5.934;2023-04-15T00:11:11;100759.72;;;14.42;45.13
75359;BME280;64046;51.978;5.934;2023-04-15T00:13:40;100757.19;;;14.41;45.13
75359;BME280;64046;51.978;5.934;2023-04-15T00:16:13;100761.72;;;14.53;45.24
75359;BME280;64046;51.978;5.934;2023-04-15T00:18:42;100759.34;;;14.34;45.50
75359;BME280;64046;51.978;5.934;2023-04-15T00:21:11;100763.88;;;14.32;45.62
75359;BME280;64046;51.978;5.934;2023-04-15T00:23:41;100764.25;;;14.26;45.91
75359;BME280;64046;51.978;5.934;2023-04-15T00:26:10;100756.81;;;14.18;46.14
75359;BME280;64046;51.978;5.934;2023-04-15T00:28:40;100757.75;;;14.17;46.15
75359;BME280;64046;51.978;5.934;2023-04-15T00:31:09;100762.34;;;14.13;46.41
75359;BME280;64046;51.978;5.934;2023-04-15T00:33:42;100761.63;;;14.26;46.40
75359;BME280;64046;51.978;5.934;2023-04-15T00:36:11;100763.47;;;14.09;46.66
75359;BME280;64046;51.978;5.934;2023-04-15T00:38:40;100760.84;;;14.09;46.64
75359;BME280;64046;51.978;5.934;2023-04-15T00:41:10;100759.72;;;14.13;46.63
75359;BME280;64046;51.978;5.934;2023-04-15T00:43:39;100760.44;;;14.01;47.01
75359;BME280;64046;51.978;5.934;2023-04-15T00:46:10;100764.41;;;14.08;47.17
75359;BME280;64046;51.978;5.934;2023-04-15T00:48:43;100760.75;;;14.11;47.45
75359;BME280;64046;51.978;5.934;2023-04-15T00:51:12;100760.91;;;13.93;47.58
75359;BME280;64046;51.978;5.934;2023-04-15T00:53:41;100761.00;;;13.92;47.69
75359;BME280;64046;51.978;5.934;2023-04-15T00:56:12;100762.25;;;14.00;47.99
75359;BME280;64046;51.978;5.934;2023-04-15T00:58:42;100768.81;;;13.93;47.95
75359;BME280;64046;51.978;5.934;2023-04-15T01:01:11;100762.03;;;13.89;48.17
75359;BME280;64046;51.978;5.934;2023-04-15T01:03:43;100756.03;;;14.01;48.30
75359;BME280;64046;51.978;5.934;2023-04-15T01:06:12;100761.28;;;13.87;48.67
75359;BME280;64046;51.978;5.934;2023-04-15T01:08:42;100767.00;;;13.79;48.85
75359;BME280;64046;51.978;5.934;2023-04-15T01:11:12;100769.19;;;13.87;49.00
75359;BME280;64046;51.978;5.934;2023-04-15T01:13:41;100772.00;;;13.84;49.13
75359;BME280;64046;51.978;5.934;2023-04-15T01:16:10;100770.88;;;13.88;49.36
75359;BME280;64046;51.978;5.934;2023-04-15T01:18:42;100764.00;;;13.86;49.40
75359;BME280;64046;51.978;5.934;2023-04-15T01:21:12;100766.81;;;13.82;49.57
75359;BME280;64046;51.978;5.934;2023-04-15T01:23:42;100775.97;;;13.91;49.71
75359;BME280;64046;51.978;5.934;2023-04-15T01:26:15;100767.78;;;13.96;49.73
75359;BME280;64046;51.978;5.934;2023-04-15T01:28:45;100767.94;;;13.78;50.09
75359;BME280;64046;51.978;5.934;2023-04-15T01:31:14;100765.47;;;13.75;50.32
75359;BME280;64046;51.978;5.934;2023-04-15T01:33:44;100769.81;;;13.76;50.28
75359;BME280;64046;51.978;5.934;2023-04-15T01:36:14;100765.38;;;13.77;50.47
75359;BME280;64046;51.978;5.934;2023-04-15T01:38:43;100761.81;;;13.78;50.48
75359;BME280;64046;51.978;5.934;2023-04-15T01:41:20;100766.59;;;14.01;50.54
75359;BME280;64046;51.978;5.934;2023-04-15T01:43:51;100768.28;;;13.72;51.05
75359;BME280;64046;51.978;5.934;2023-04-15T01:46:21;100771.22;;;13.82;51.21
75359;BME280;64046;51.978;5.934;2023-04-15T01:48:50;100765.75;;;13.71;51.26
75359;BME280;64046;51.978;5.934;2023-04-15T01:51:20;100767.72;;;13.67;51.48
75359;BME280;64046;51.978;5.934;2023-04-15T01:53:49;100766.84;;;13.66;51.68
75359;BME280;64046;51.978;5.934;2023-04-15T01:56:20;100770.50;;;13.80;51.63
75359;BME280;64046;51.978;5.934;2023-04-15T01:58:50;100766.94;;;13.65;51.99
75359;BME280;64046;51.978;5.934;2023-04-15T02:01:19;100765.19;;;13.65;52.01
75359;BME280;64046;51.978;5.934;2023-04-15T02:03:48;100768.66;;;13.66;52.10
75359;BME280;64046;51.978;5.934;2023-04-15T02:06:17;100769.41;;;13.68;52.12
75359;BME280;64046;51.978;5.934;2023-04-15T02:08:47;100767.81;;;13.65;52.28
75359;BME280;64046;51.978;5.934;2023-04-15T02:11:16;100768.66;;;13.66;52.39
75359;BME280;64046;51.978;5.934;2023-04-15T02:13:48;100771.13;;;13.83;52.35
75359;BME280;64046;51.978;5.934;2023-04-15T02:16:18;100772.81;;;13.70;52.52
75359;BME280;64046;51.978;5.934;2023-04-15T02:18:47;100771.09;;;13.69;52.47
75359;BME280;64046;51.978;5.934;2023-04-15T02:21:17;100770.44;;;13.65;52.81
75359;BME280;64046;51.978;5.934;2023-04-15T02:23:46;100773.22;;;13.62;53.02
75359;BME280;64046;51.978;5.934;2023-04-15T02:26:16;100771.75;;;13.58;53.34
75359;BME280;64046;51.978;5.934;2023-04-15T02:28:48;100779.69;;;13.73;53.63
75359;BME280;64046;51.978;5.934;2023-04-15T02:31:18;100780.75;;;13.54;53.85
75359;BME280;64046;51.978;5.934;2023-04-15T02:33:47;100777.25;;;13.54;54.08
75359;BME280;64046;51.978;5.934;2023-04-15T02:36:16;100784.31;;;13.53;54.12
75359;BME280;64046;51.978;5.934;2023-04-15T02:38:46;100785.31;;;13.50;54.44
75359;BME280;64046;51.978;5.934;2023-04-15T02:41:16;100789.75;;;13.50;54.50
75359;BME280;64046;51.978;5.934;2023-04-15T02:43:49;100794.56;;;13.58;54.75
75359;BME280;64046;51.978;5.934;2023-04-15T02:46:18;100796.56;;;13.38;55.07
75359;BME280;64046;51.978;5.934;2023-04-15T02:48:48;100802.59;;;13.40;55.19
75359;BME280;64046;51.978;5.934;2023-04-15T02:51:20;100799.69;;;13.45;55.21
75359;BME280;64046;51.978;5.934;2023-04-15T02:53:49;100801.66;;;13.41;55.28
75359;BME280;64046;51.978;5.934;2023-04-15T02:56:18;100801.97;;;13.35;55.51
75359;BME280;64046;51.978;5.934;2023-04-15T02:58:51;100808.34;;;13.47;55.73
75359;BME280;64046;51.978;5.934;2023-04-15T03:01:21;100801.47;;;13.28;56.01
75359;BME280;64046;51.978;5.934;2023-04-15T03:03:51;100804.28;;;13.25;56.16
75359;BME280;64046;51.978;5.934;2023-04-15T03:06:20;100804.09;;;13.28;56.34
75359;BME280;64046;51.978;5.934;2023-04-15T03:08:50;100811.03;;;13.29;56.39
75359;BME280;64046;51.978;5.934;2023-04-15T03:11:20;100806.13;;;13.23;56.60
75359;BME280;64046;51.978;5.934;2023-04-15T03:13:51;100812.50;;;13.35;56.77
75359;BME280;64046;51.978;5.934;2023-04-15T03:16:27;100806.78;;;13.11;57.33
75359;BME280;64046;51.978;5.934;2023-04-15T03:18:57;100806.03;;;13.09;57.48
75359;BME280;64046;51.978;5.934;2023-04-15T03:21:26;100810.47;;;13.08;57.65
75359;BME280;64046;51.978;5.934;2023-04-15T03:23:55;100808.59;;;13.10;57.69
75359;BME280;64046;51.978;5.934;2023-04-15T03:26:26;100805.56;;;13.18;57.92
75359;BME280;64046;51.978;5.934;2023-04-15T03:29:02;100815.81;;;13.23;58.04
75359;BME280;64046;51.978;5.934;2023-04-15T03:31:31;100819.63;;;13.01;58.42
75359;BME280;64046;51.978;5.934;2023-04-15T03:34:00;100814.44;;;13.00;58.82
75359;BME280;64046;51.978;5.934;2023-04-15T03:36:30;100816.81;;;13.04;58.88
75359;BME280;64046;51.978;5.934;2023-04-15T03:39:00;100820.91;;;12.94;59.12
75359;BME280;64046;51.978;5.934;2023-04-15T03:41:29;100825.97;;;12.81;59.69
75359;BME280;64046;51.978;5.934;2023-04-15T03:44:01;100830.81;;;12.89;60.13
75359;BME280;64046;51.978;5.934;2023-04-15T03:46:30;100833.56;;;12.70;60.35
75359;BME280;64046;51.978;5.934;2023-04-15T03:49:00;100827.31;;;12.72;60.46
75359;BME280;64046;51.978;5.934;2023-04-15T03:51:29;100829.94;;;12.72;60.53
75359;BME280;64046;51.978;5.934;2023-04-15T03:53:59;100838.56;;;12.74;60.44
75359;BME280;64046;51.978;5.934;2023-04-15T03:56:28;100833.31;;;12.74;60.63
75359;BME280;64046;51.978;5.934;2023-04-15T03:58:57;100833.31;;;12.74;60.74
75359;BME280;64046;51.978;5.934;2023-04-15T04:01:29;100835.97;;;12.90;60.79
75359;BME280;64046;51.978;5.934;2023-04-15T04:03:58;100839.59;;;12.72;61.10
75359;BME280;64046;51.978;5.934;2023-04-15T04:06:27;100842.28;;;12.70;61.36
75359;BME280;64046;51.978;5.934;2023-04-15T04:08:56;100836.13;;;12.71;61.31
75359;BME280;64046;51.978;5.934;2023-04-15T04:11:26;100844.94;;;12.70;61.37
75359;BME280;64046;51.978;5.934;2023-04-15T04:13:56;100848.34;;;12.72;61.52
75359;BME280;64046;51.978;5.934;2023-04-15T04:16:25;100845.84;;;12.69;61.89
75359;BME280;64046;51.978;5.934;2023-04-15T04:18:57;100858.34;;;12.81;61.84
75359;BME280;64046;51.978;5.934;2023-04-15T04:21:27;100864.94;;;12.73;62.17
75359;BME280;64046;51.978;5.934;2023-04-15T04:23:56;100869.22;;;12.58;62.54
75359;BME280;64046;51.978;5.934;2023-04-15T04:26:25;100868.72;;;12.51;62.74
75359;BME280;64046;51.978;5.934;2023-04-15T04:28:54;100875.88;;;12.48;63.20
75359;BME280;64046;51.978;5.934;2023-04-15T04:31:23;100872.56;;;12.44;63.36
75359;BME280;64046;51.978;5.934;2023-04-15T04:33:52;100876.75;;;12.48;63.40
75359;BME280;64046;51.978;5.934;2023-04-15T04:36:24;100884.63;;;12.66;63.12
75359;BME280;64046;51.978;5.934;2023-04-15T04:38:53;100879.38;;;12.48;63.40
75359;BME280;64046;51.978;5.934;2023-04-15T04:41:22;100881.94;;;12.50;63.57
75359;BME280;64046;51.978;5.934;2023-04-15T04:43:51;100887.25;;;12.48;63.73
75359;BME280;64046;51.978;5.934;2023-04-15T04:46:21;100890.03;;;12.45;63.69
75359;BME280;64046;51.978;5.934;2023-04-15T04:48:50;100894.00;;;12.54;63.64
75359;BME280;64046;51.978;5.934;2023-04-15T04:51:19;100900.53;;;12.45;63.93
75359;BME280;64046;51.978;5.934;2023-04-15T04:53:51;100904.19;;;12.60;63.93
75359;BME280;64046;51.978;5.934;2023-04-15T04:56:20;100905.03;;;12.43;64.33
75359;BME280;64046;51.978;5.934;2023-04-15T04:58:49;100902.88;;;12.34;64.91
75359;BME280;64046;51.978;5.934;2023-04-15T05:01:18;100913.53;;;12.31;65.34
75359;BME280;64046;51.978;5.934;2023-04-15T05:03:47;100910.97;;;12.29;65.37
75359;BME280;64046;51.978;5.934;2023-04-15T05:06:16;100914.31;;;12.33;65.43
75359;BME280;64046;51.978;5.934;2023-04-15T05:08:46;100924.91;;;12.31;65.70
75359;BME280;64046;51.978;5.934;2023-04-15T05:11:18;100925.75;;;12.49;65.72
75359;BME280;64046;51.978;5.934;2023-04-15T05:13:47;100923.91;;;12.34;66.07
75359;BME280;64046;51.978;5.934;2023-04-15T05:16:16;100930.91;;;12.33;66.13
75359;BME280;64046;51.978;5.934;2023-04-15T05:18:46;100934.03;;;12.41;66.01
75359;BME280;64046;51.978;5.934;2023-04-15T05:21:15;100937.19;;;12.48;65.93
75359;BME280;64046;51.978;5.934;2023-04-15T05:23:44;100943.69;;;12.41;66.22
75359;BME280;64046;51.978;5.934;2023-04-15T05:26:13;100944.63;;;12.40;66.79
75359;BME280;64046;51.978;5.934;2023-04-15T05:28:45;100947.94;;;12.61;66.80
75359;BME280;64046;51.978;5.934;2023-04-15T05:31:14;100951.19;;;12.49;67.05
75359;BME280;64046;51.978;5.934;2023-04-15T05:33:43;100962.53;;;12.49;67.56
75359;BME280;64046;51.978;5.934;2023-04-15T05:36:13;100959.78;;;12.52;67.69
75359;BME280;64046;51.978;5.934;2023-04-15T05:38:42;100962.41;;;12.52;67.93
75359;BME280;64046;51.978;5.934;2023-04-15T05:41:11;100956.75;;;12.42;68.96
75359;BME280;64046;51.978;5.934;2023-04-15T05:43:40;100959.97;;;12.48;68.93
75359;BME280;64046;51.978;5.934;2023-04-15T05:46:12;100969.63;;;12.82;68.37
75359;BME280;64046;51.978;5.934;2023-04-15T05:48:42;100970.59;;;12.81;67.88
75359;BME280;64046;51.978;5.934;2023-04-15T05:51:11;100972.75;;;12.90;67.71
75359;BME280;64046;51.978;5.934;2023-04-15T05:53:40;100980.75;;;13.05;67.35
75359;BME280;64046;51.978;5.934;2023-04-15T05:56:09;100980.44;;;13.11;67.18
75359;BME280;64046;51.978;5.934;2023-04-15T05:58:38;100970.72;;;13.29;66.44
75359;BME280;64046;51.978;5.934;2023-04-15T06:01:07;100980.72;;;13.22;67.00
75359;BME280;64046;51.978;5.934;2023-04-15T06:03:39;100979.91;;;13.71;65.54
75359;BME280;64046;51.978;5.934;2023-04-15T06:06:08;100986.50;;;13.62;65.40
75359;BME280;64046;51.978;5.934;2023-04-15T06:08:38;100993.56;;;13.46;66.54
75359;BME280;64046;51.978;5.934;2023-04-15T06:11:07;100994.59;;;13.75;65.49
75359;BME280;64046;51.978;5.934;2023-04-15T06:13:36;101004.63;;;13.53;66.70
75359;BME280;64046;51.978;5.934;2023-04-15T06:16:06;101003.94;;;13.65;66.96
75359;BME280;64046;51.978;5.934;2023-04-15T06:18:35;101009.63;;;13.57;67.15
75359;BME280;64046;51.978;5.934;2023-04-15T06:21:07;101017.78;;;13.69;67.52
75359;BME280;64046;51.978;5.934;2023-04-15T06:23:36;101015.97;;;13.53;67.95
75359;BME280;64046;51.978;5.934;2023-04-15T06:26:06;101019.78;;;13.47;68.38
75359;BME280;64046;51.978;5.934;2023-04-15T06:28:35;101031.16;;;13.48;68.74
75359;BME280;64046;51.978;5.934;2023-04-15T06:31:04;101031.78;;;13.53;68.47
75359;BME280;64046;51.978;5.934;2023-04-15T06:33:33;101031.88;;;13.52;68.44
75359;BME280;64046;51.978;5.934;2023-04-15T06:36:03;101031.88;;;13.52;68.02
75359;BME280;64046;51.978;5.934;2023-04-15T06:38:34;101040.88;;;13.63;67.49
75359;BME280;64046;51.978;5.934;2023-04-15T06:41:04;101045.09;;;13.50;67.04
75359;BME280;64046;51.978;5.934;2023-04-15T06:43:33;101063.44;;;13.52;66.24
75359;BME280;64046;51.978;5.934;2023-04-15T06:46:02;101058.53;;;13.45;65.79
75359;BME280;64046;51.978;5.934;2023-04-15T06:48:31;101064.72;;;13.44;65.50
75359;BME280;64046;51.978;5.934;2023-04-15T06:51:00;101065.25;;;13.51;65.07
75359;BME280;64046;51.978;5.934;2023-04-15T06:53:29;101068.66;;;13.69;64.20
75359;BME280;64046;51.978;5.934;2023-04-15T06:56:01;101066.66;;;13.74;64.09
75359;BME280;64046;51.978;5.934;2023-04-15T06:58:30;101066.53;;;13.60;64.40
75359;BME280;64046;51.978;5.934;2023-04-15T07:00:59;101075.94;;;13.64;64.21
75359;BME280;64046;51.978;5.934;2023-04-15T07:03:29;101085.28;;;13.87;63.25
75359;BME280;64046;51.978;5.934;2023-04-15T07:05:58;101091.94;;;13.77;63.32
75359;BME280;64046;51.978;5.934;2023-04-15T07:08:31;101084.66;;;13.82;63.14
75359;BME280;64046;51.978;5.934;2023-04-15T07:11:03;101087.22;;;13.99;62.55
75359;BME280;64046;51.978;5.934;2023-04-15T07:13:32;101090.78;;;13.82;62.59
75359;BME280;64046;51.978;5.934;2023-04-15T07:16:02;101095.72;;;13.73;62.60
75359;BME280;64046;51.978;5.934;2023-04-15T07:18:31;101097.09;;;13.62;63.05
75359;BME280;64046;51.978;5.934;2023-04-15T07:21:00;101107.09;;;13.73;62.47
75359;BME280;64046;51.978;5.934;2023-04-15T07:23:29;101103.00;;;13.67;62.71
75359;BME280;64046;51.978;5.934;2023-04-15T07:25:58;101108.16;;;13.69;63.01
75359;BME280;64046;51.978;5.934;2023-04-15T07:28:30;101112.09;;;13.78;62.62
75359;BME280;64046;51.978;5.934;2023-04-15T07:30:59;101118.41;;;13.58;63.22
75359;BME280;64046;51.978;5.934;2023-04-15T07:33:28;101119.28;;;13.58;63.36
75359;BME280;64046;51.978;5.934;2023-04-15T07:35:57;101124.47;;;13.60;63.28
75359;BME280;64046;51.978;5.934;2023-04-15T07:38:26;101130.91;;;13.54;63.44
75359;BME280;64046;51.978;5.934;2023-04-15T07:40:55;101129.94;;;13.55;63.73
75359;BME280;64046;51.978;5.934;2023-04-15T07:43:24;101125.31;;;13.60;63.70
75359;BME280;64046;51.978;5.934;2023-04-15T07:45:56;101133.09;;;13.79;63.56
75359;BME280;64046;51.978;5.934;2023-04-15T07:48:25;101128.47;;;13.67;63.62
75359;BME280;64046;51.978;5.934;2023-04-15T07:50:54;101137.13;;;13.69;63.42
75359;BME280;64046;51.978;5.934;2023-04-15T07:53:24;101136.06;;;13.73;63.57
75359;BME280;64046;51.978;5.934;2023-04-15T07:55:53;101139.22;;;13.80;63.60
75359;BME280;64046;51.978;5.934;2023-04-15T07:58:22;101142.53;;;13.83;63.33
75359;BME280;64046;51.978;5.934;2023-04-15T08:00:51;101139.56;;;13.90;63.21
75359;BME280;64046;51.978;5.934;2023-04-15T08:03:24;101139.56;;;14.23;62.31
75359;BME280;64046;51.978;5.934;2023-04-15T08:05:53;101148.03;;;14.12;61.88
75359;BME280;64046;51.978;5.934;2023-04-15T08:08:22;101151.72;;;14.26;61.61
75359;BME280;64046;51.978;5.934;2023-04-15T08:10:51;101159.09;;;14.35;61.11
75359;BME280;64046;51.978;5.934;2023-04-15T08:13:20;101158.53;;;14.46;60.53
75359;BME280;64046;51.978;5.934;2023-04-15T08:16:12;101158.00;;;14.55;59.83
75359;BME280;64046;51.978;5.934;2023-04-15T08:18:43;101159.03;;;14.52;59.99
75359;BME280;64046;51.978;5.934;2023-04-15T08:21:13;101170.09;;;14.43;59.87
75359;BME280;64046;51.978;5.934;2023-04-15T08:23:43;101165.56;;;14.45;59.45
75359;BME280;64046;51.978;5.934;2023-04-15T08:26:12;101160.38;;;14.44;59.20
75359;BME280;64046;51.978;5.934;2023-04-15T08:28:42;101166.94;;;14.52;58.98
75359;BME280;64046;51.978;5.934;2023-04-15T08:31:12;101167.81;;;14.53;58.47
75359;BME280;64046;51.978;5.934;2023-04-15T08:33:44;101174.28;;;14.79;57.71
75359;BME280;64046;51.978;5.934;2023-04-15T08:36:14;101166.63;;;14.59;57.24
75359;BME280;64046;51.978;5.934;2023-04-15T08:38:44;101181.84;;;14.85;56.25
75359;BME280;64046;51.978;5.934;2023-04-15T08:41:20;101181.28;;;14.80;56.60
75359;BME280;64046;51.978;5.934;2023-04-15T08:43:56;101198.19;;;14.76;56.70
75359;BME280;64046;51.978;5.934;2023-04-15T08:46:26;101192.91;;;14.60;57.02
75359;BME280;64046;51.978;5.934;2023-04-15T08:48:58;101194.97;;;14.71;56.92
75359;BME280;64046;51.978;5.934;2023-04-15T08:51:28;101192.75;;;14.63;57.19
75359;BME280;64046;51.978;5.934;2023-04-15T08:53:58;101190.63;;;14.86;57.15
75359;BME280;64046;51.978;5.934;2023-04-15T08:56:30;101195.78;;;15.03;56.68
75359;BME280;64046;51.978;5.934;2023-04-15T08:58:59;101199.72;;;14.96;56.67
75359;BME280;64046;51.978;5.934;2023-04-15T09:01:28;101201.16;;;15.02;56.46
75359;BME280;64046;51.978;5.934;2023-04-15T09:04:01;101211.28;;;15.10;56.59
75359;BME280;64046;51.978;5.934;2023-04-15T09:06:33;101213.50;;;15.01;56.60
75359;BME280;64046;51.978;5.934;2023-04-15T09:09:02;101209.25;;;14.99;56.67
75359;BME280;64046;51.978;5.934;2023-04-15T09:11:31;101212.38;;;15.05;56.58
75359;BME280;64046;51.978;5.934;2023-04-15T09:14:01;101215.97;;;15.04;56.47
75359;BME280;64046;51.978;5.934;2023-04-15T09:16:30;101218.53;;;15.06;56.24
75359;BME280;64046;51.978;5.934;2023-04-15T09:19:19;101220.41;;;15.34;55.70
75359;BME280;64046;51.978;5.934;2023-04-15T09:21:50;101229.06;;;15.22;55.92
75359;BME280;64046;51.978;5.934;2023-04-15T09:24:19;101224.19;;;15.14;55.92
75359;BME280;64046;51.978;5.934;2023-04-15T09:26:51;101233.78;;;15.31;55.67
75359;BME280;64046;51.978;5.934;2023-04-15T09:29:23;101244.03;;;15.37;55.52
75359;BME280;64046;51.978;5.934;2023-04-15T09:31:53;101235.13;;;15.38;55.42
75359;BME280;64046;51.978;5.934;2023-04-15T09:34:34;101231.97;;;15.78;54.86
75359;BME280;64046;51.978;5.934;2023-04-15T09:37:03;101246.16;;;15.61;55.37
75359;BME280;64046;51.978;5.934;2023-04-15T09:39:45;101246.25;;;15.90;54.86
75359;BME280;64046;51.978;5.934;2023-04-15T09:42:16;101252.22;;;15.63;54.91
75359;BME280;64046;51.978;5.934;2023-04-15T09:44:49;101241.38;;;15.68;54.79
75359;BME280;64046;51.978;5.934;2023-04-15T09:47:28;101251.25;;;15.95;54.34
75359;BME280;64046;51.978;5.934;2023-04-15T09:50:00;101248.63;;;15.95;54.34
75359;BME280;64046;51.978;5.934;2023-04-15T09:52:29;101253.75;;;15.98;53.26
75359;BME280;64046;51.978;5.934;2023-04-15T09:54:59;101258.34;;;15.94;53.46
75359;BME280;64046;51.978;5.934;2023-04-15T09:57:33;101252.72;;;16.15;53.08
75359;BME280;64046;51.978;5.934;2023-04-15T10:00:03;101255.81;;;16.36;52.69
75359;BME280;64046;51.978;5.934;2023-04-15T10:02:33;101259.50;;;16.19;53.16
75359;BME280;64046;51.978;5.934;2023-04-15T10:05:05;101257.53;;;16.22;52.84
75359;BME280;64046;51.978;5.934;2023-04-15T10:07:35;101272.91;;;16.01;53.62
75359;BME280;64046;51.978;5.934;2023-04-15T10:10:07;101268.38;;;16.03;53.67
75359;BME280;64046;51.978;5.934;2023-04-15T10:12:37;101266.28;;;16.08;53.64
75359;BME280;64046;51.978;5.934;2023-04-15T10:15:11;101273.41;;;16.22;52.96
75359;BME280;64046;51.978;5.934;2023-04-15T10:17:43;101269.69;;;15.96;53.53
75359;BME280;64046;51.978;5.934;2023-04-15T10:20:16;101264.44;;;16.11;53.49
75359;BME280;64046;51.978;5.934;2023-04-15T10:22:47;101268.53;;;16.00;53.78
75359;BME280;64046;51.978;5.934;2023-04-15T10:25:18;101284.50;;;16.13;53.24
75359;BME280;64046;51.978;5.934;2023-04-15T10:27:47;101295.63;;;15.89;53.54
75359;BME280;64046;51.978;5.934;2023-04-15T10:30:18;101287.78;;;15.88;53.49
75359;BME280;64046;51.978;5.934;2023-04-15T10:32:47;101294.00;;;15.87;53.72
75359;BME280;64046;51.978;5.934;2023-04-15T10:35:20;101289.88;;;15.97;53.36
75359;BME280;64046;51.978;5.934;2023-04-15T10:37:50;101295.91;;;15.85;53.05
75359;BME280;64046;51.978;5.934;2023-04-15T10:40:27;101287.00;;;16.16;52.42
75359;BME280;64046;51.978;5.934;2023-04-15T10:42:57;101290.75;;;16.12;52.12
75359;BME280;64046;51.978;5.934;2023-04-15T10:45:31;101293.13;;;16.31;51.96
75359;BME280;64046;51.978;5.934;2023-04-15T10:48:03;101289.19;;;16.38;51.55
75359;BME280;64046;51.978;5.934;2023-04-15T10:50:36;101294.94;;;16.45;51.29
75359;BME280;64046;51.978;5.934;2023-04-15T10:53:05;101295.88;;;16.30;51.60
75359;BME280;64046;51.978;5.934;2023-04-15T10:55:38;101299.47;;;16.43;51.36
75359;BME280;64046;51.978;5.934;2023-04-15T10:58:08;101306.75;;;16.68;50.48
75359;BME280;64046;51.978;5.934;2023-04-15T11:00:40;101297.00;;;16.40;50.11
75359;BME280;64046;51.978;5.934;2023-04-15T11:03:35;101300.22;;;16.74;49.40
75359;BME280;64046;51.978;5.934;2023-04-15T11:06:07;101294.47;;;16.67;49.91
75359;BME280;64046;51.978;5.934;2023-04-15T11:08:52;101307.13;;;16.91;49.76
75359;BME280;64046;51.978;5.934;2023-04-15T11:11:21;101300.97;;;16.61;50.27
75359;BME280;64046;51.978;5.934;2023-04-15T11:13:51;101304.28;;;16.65;50.73
75359;BME280;64046;51.978;5.934;2023-04-15T11:16:20;101302.03;;;16.88;50.01
75359;BME280;64046;51.978;5.934;2023-04-15T11:18:53;101311.25;;;17.09;49.45
75359;BME280;64046;51.978;5.934;2023-04-15T11:21:26;101313.25;;;17.06;49.39
75359;BME280;64046;51.978;5.934;2023-04-15T11:23:55;101303.25;;;16.97;49.27
75359;BME280;64046;51.978;5.934;2023-04-15T11:26:25;101320.16;;;17.08;49.21
75359;BME280;64046;51.978;5.934;2023-04-15T11:28:54;101313.72;;;17.12;48.85
75359;BME280;64046;51.978;5.934;2023-04-15T11:31:26;101317.97;;;17.15;48.85
75359;BME280;64046;51.978;5.934;2023-04-15T11:33:57;101312.44;;;17.33;48.71
75359;BME280;64046;51.978;5.934;2023-04-15T11:36:30;101318.63;;;17.46;48.09
75359;BME280;64046;51.978;5.934;2023-04-15T11:38:59;101317.63;;;17.34;48.30
75359;BME280;64046;51.978;5.934;2023-04-15T11:41:29;101326.09;;;17.39;48.30
75359;BME280;64046;51.978;5.934;2023-04-15T11:43:58;101332.16;;;17.41;48.18
75359;BME280;64046;51.978;5.934;2023-04-15T11:46:30;101325.81;;;17.71;47.13
75359;BME280;64046;51.978;5.934;2023-04-15T11:49:00;101350.00;;;17.52;46.45
75359;BME280;64046;51.978;5.934;2023-04-15T11:51:34;101343.66;;;17.55;45.72
75359;BME280;64046;51.978;5.934;2023-04-15T11:54:03;101339.97;;;17.30;45.60
75359;BME280;64046;51.978;5.934;2023-04-15T11:56:32;101366.66;;;17.27;45.89
75359;BME280;64046;51.978;5.934;2023-04-15T11:59:02;101360.31;;;17.29;45.92
75359;BME280;64046;51.978;5.934;2023-04-15T12:01:31;101339.22;;;17.28;45.79
75359;BME280;64046;51.978;5.934;2023-04-15T12:04:01;101356.25;;;17.24;45.89
75359;BME280;64046;51.978;5.934;2023-04-15T12:06:35;101339.34;;;17.39;45.72
75359;BME280;64046;51.978;5.934;2023-04-15T12:09:09;101350.72;;;17.41;45.58
75359;BME280;64046;51.978;5.934;2023-04-15T12:11:43;101347.91;;;17.30;46.05
75359;BME280;64046;51.978;5.934;2023-04-15T12:14:23;101360.47;;;17.41;45.84
75359;BME280;64046;51.978;5.934;2023-04-15T12:16:55;101362.19;;;17.27;46.20
75359;BME280;64046;51.978;5.934;2023-04-15T12:19:26;101362.28;;;17.26;46.26
75359;BME280;64046;51.978;5.934;2023-04-15T12:22:01;101361.03;;;17.32;46.02
75359;BME280;64046;51.978;5.934;2023-04-15T12:24:32;101358.22;;;17.20;46.21
75359;BME280;64046;51.978;5.934;2023-04-15T12:27:03;101353.44;;;17.12;46.31
75359;BME280;64046;51.978;5.934;2023-04-15T12:29:34;101365.88;;;17.25;46.45
75359;BME280;64046;51.978;5.934;2023-04-15T12:32:05;101375.44;;;17.27;46.04
75359;BME280;64046;51.978;5.934;2023-04-15T12:34:36;101375.00;;;17.21;45.98
75359;BME280;64046;51.978;5.934;2023-04-15T12:37:09;101372.69;;;17.29;45.86
75359;BME280;64046;51.978;5.934;2023-04-15T12:39:41;101378.28;;;17.24;45.82
75359;BME280;64046;51.978;5.934;2023-04-15T12:42:11;101376.47;;;17.25;46.11
75359;BME280;64046;51.978;5.934;2023-04-15T12:44:40;101378.34;;;17.37;45.54
75359;BME280;64046;51.978;5.934;2023-04-15T12:47:10;101380.06;;;17.38;46.02
75359;BME280;64046;51.978;5.934;2023-04-15T12:49:40;101397.94;;;17.35;46.03
75359;BME280;64046;51.978;5.934;2023-04-15T12:52:11;101399.72;;;17.49;46.38
75359;BME280;64046;51.978;5.934;2023-04-15T12:54:41;101409.75;;;17.29;46.46
75359;BME280;64046;51.978;5.934;2023-04-15T12:57:10;101400.06;;;17.15;47.16
75359;BME280;64046;51.978;5.934;2023-04-15T12:59:39;101394.47;;;17.20;46.69
75359;BME280;64046;51.978;5.934;2023-04-15T13:02:08;101406.78;;;17.21;46.26
75359;BME280;64046;51.978;5.934;2023-04-15T13:04:38;101397.75;;;17.23;46.19
75359;BME280;64046;51.978;5.934;2023-04-15T13:07:07;101426.72;;;17.12;46.33